sensor_id;sensor_type;location;lat;lon;timestamp;temperature;humidity
1800;DHT22;919;48.274;12.292;2023-07-30T00:02:07;18.20;99.90
1800;DHT22;919;48.274;12.292;2023-07-30T00:04:34;18.20;99.90
1800;DHT22;919;48.274;12.292;2023-07-30T00:07:02;18.20;99.90
1800;DHT22;919;48.274;12.292;2023-07-30T00:09:29;18.20;99.90
1800;DHT22;919;48.274;12.292;2023-07-30T00:11:55;18.20;99.90
1800;DHT22;919;48.274;12.292;2023-07-30T00:14:22;18.20;99.90
1800;DHT22;919;48.274;12.292;2023-07-30T00:16:49;18.10;99.90
1800;DHT22;919;48.274;12.292;2023-07-30T00:19:16;18.10;99.90
1800;DHT22;919;48.274;12.292;2023-07-30T00:21:42;18.10;99.90
1800;DHT22;919;48.274;12.292;2023-07-30T00:24:13;18.10;99.90
1800;DHT22;919;48.274;12.292;2023-07-30T00:26:40;18.10;99.90
1800;DHT22;919;48.274;12.292;2023-07-30T00:29:06;18.10;99.90
1800;DHT22;919;48.274;12.292;2023-07-30T00:31:33;18.10;99.90
1800;DHT22;919;48.274;12.292;2023-07-30T00:34:00;18.00;99.90
1800;DHT22;919;48.274;12.292;2023-07-30T00:36:27;18.10;99.90
1800;DHT22;919;48.274;12.292;2023-07-30T00:38:54;18.10;99.90
1800;DHT22;919;48.274;12.292;2023-07-30T00:41:22;18.00;99.90
1800;DHT22;919;48.274;12.292;2023-07-30T00:43:49;18.00;99.90
1800;DHT22;919;48.274;12.292;2023-07-30T00:46:16;18.10;99.90
1800;DHT22;919;48.274;12.292;2023-07-30T00:48:43;18.10;99.90
1800;DHT22;919;48.274;12.292;2023-07-30T00:51:11;18.10;99.90
1800;DHT22;919;48.274;12.292;2023-07-30T00:53:39;18.10;99.90
1800;DHT22;919;48.274;12.292;2023-07-30T00:56:06;18.00;99.90
1800;DHT22;919;48.274;12.292;2023-07-30T00:58:35;18.10;99.90
1800;DHT22;919;48.274;12.292;2023-07-30T01:01:02;18.20;99.90
1800;DHT22;919;48.274;12.292;2023-07-30T01:03:29;18.20;99.90
1800;DHT22;919;48.274;12.292;2023-07-30T01:05:56;18.20;99.90
1800;DHT22;919;48.274;12.292;2023-07-30T01:08:23;18.20;99.90
1800;DHT22;919;48.274;12.292;2023-07-30T01:10:50;18.30;99.90
1800;DHT22;919;48.274;12.292;2023-07-30T01:13:17;18.30;99.90
1800;DHT22;919;48.274;12.292;2023-07-30T01:15:47;18.30;99.90
1800;DHT22;919;48.274;12.292;2023-07-30T01:18:14;18.30;99.90
1800;DHT22;919;48.274;12.292;2023-07-30T01:20:40;18.30;99.90
1800;DHT22;919;48.274;12.292;2023-07-30T01:23:09;18.30;99.90
1800;DHT22;919;48.274;12.292;2023-07-30T01:25:36;18.30;99.90
1800;DHT22;919;48.274;12.292;2023-07-30T01:28:05;18.30;99.90
1800;DHT22;919;48.274;12.292;2023-07-30T01:30:35;18.40;99.90
1800;DHT22;919;48.274;12.292;2023-07-30T01:33:05;18.30;99.90
1800;DHT22;919;48.274;12.292;2023-07-30T01:35:32;18.30;99.90
1800;DHT22;919;48.274;12.292;2023-07-30T01:38:00;18.30;99.90
1800;DHT22;919;48.274;12.292;2023-07-30T01:40:30;18.30;99.90
1800;DHT22;919;48.274;12.292;2023-07-30T01:42:57;18.30;99.90
1800;DHT22;919;48.274;12.292;2023-07-30T01:45:24;18.30;99.90
1800;DHT22;919;48.274;12.292;2023-07-30T01:47:52;18.20;99.90
1800;DHT22;919;48.274;12.292;2023-07-30T01:50:18;18.20;99.90
1800;DHT22;919;48.274;12.292;2023-07-30T01:52:45;18.10;99.90
1800;DHT22;919;48.274;12.292;2023-07-30T01:55:12;18.10;99.90
1800;DHT22;919;48.274;12.292;2023-07-30T01:57:40;18.00;99.90
1800;DHT22;919;48.274;12.292;2023-07-30T02:00:07;18.00;99.90
1800;DHT22;919;48.274;12.292;2023-07-30T02:02:34;18.00;99.90
1800;DHT22;919;48.274;12.292;2023-07-30T02:05:01;18.00;99.90
1800;DHT22;919;48.274;12.292;2023-07-30T02:07:28;18.00;99.90
1800;DHT22;919;48.274;12.292;2023-07-30T02:09:56;18.00;99.90
1800;DHT22;919;48.274;12.292;2023-07-30T02:12:22;18.10;99.90
1800;DHT22;919;48.274;12.292;2023-07-30T02:14:51;18.20;99.90
1800;DHT22;919;48.274;12.292;2023-07-30T02:17:17;18.20;99.90
1800;DHT22;919;48.274;12.292;2023-07-30T02:19:44;18.20;99.90
1800;DHT22;919;48.274;12.292;2023-07-30T02:22:11;18.20;99.90
1800;DHT22;919;48.274;12.292;2023-07-30T02:24:38;18.30;99.90
1800;DHT22;919;48.274;12.292;2023-07-30T02:27:05;18.30;99.90
1800;DHT22;919;48.274;12.292;2023-07-30T02:29:31;18.30;99.90
1800;DHT22;919;48.274;12.292;2023-07-30T02:31:59;18.40;99.90
1800;DHT22;919;48.274;12.292;2023-07-30T02:34:26;18.40;99.90
1800;DHT22;919;48.274;12.292;2023-07-30T02:36:53;18.30;99.90
1800;DHT22;919;48.274;12.292;2023-07-30T02:39:20;18.30;99.90
1800;DHT22;919;48.274;12.292;2023-07-30T02:41:47;18.30;99.90
1800;DHT22;919;48.274;12.292;2023-07-30T02:44:13;18.30;99.90
1800;DHT22;919;48.274;12.292;2023-07-30T02:46:40;18.30;99.90
1800;DHT22;919;48.274;12.292;2023-07-30T02:49:08;18.30;99.90
1800;DHT22;919;48.274;12.292;2023-07-30T02:51:35;18.30;99.90
1800;DHT22;919;48.274;12.292;2023-07-30T02:54:04;18.30;99.90
1800;DHT22;919;48.274;12.292;2023-07-30T02:56:32;18.30;99.90
1800;DHT22;919;48.274;12.292;2023-07-30T02:58:59;18.20;99.90
1800;DHT22;919;48.274;12.292;2023-07-30T03:01:26;18.30;99.90
1800;DHT22;919;48.274;12.292;2023-07-30T03:03:52;18.30;99.90
1800;DHT22;919;48.274;12.292;2023-07-30T03:06:21;18.30;99.90
1800;DHT22;919;48.274;12.292;2023-07-30T03:08:47;18.30;99.90
1800;DHT22;919;48.274;12.292;2023-07-30T03:11:14;18.30;99.90
1800;DHT22;919;48.274;12.292;2023-07-30T03:13:41;18.30;99.90
1800;DHT22;919;48.274;12.292;2023-07-30T03:16:07;18.30;99.90
1800;DHT22;919;48.274;12.292;2023-07-30T03:18:34;18.40;99.90
1800;DHT22;919;48.274;12.292;2023-07-30T03:21:01;18.40;99.90
1800;DHT22;919;48.274;12.292;2023-07-30T03:23:30;18.30;99.90
1800;DHT22;919;48.274;12.292;2023-07-30T03:25:57;18.30;99.90
1800;DHT22;919;48.274;12.292;2023-07-30T03:28:25;18.30;99.90
1800;DHT22;919;48.274;12.292;2023-07-30T03:30:52;18.30;99.90
1800;DHT22;919;48.274;12.292;2023-07-30T03:33:19;18.30;99.90
1800;DHT22;919;48.274;12.292;2023-07-30T03:35:46;18.20;99.90
1800;DHT22;919;48.274;12.292;2023-07-30T03:38:13;18.10;99.90
1800;DHT22;919;48.274;12.292;2023-07-30T03:40:41;18.10;99.90
1800;DHT22;919;48.274;12.292;2023-07-30T03:43:07;18.00;99.90
1800;DHT22;919;48.274;12.292;2023-07-30T03:45:34;17.90;99.90
1800;DHT22;919;48.274;12.292;2023-07-30T03:48:01;17.90;99.90
1800;DHT22;919;48.274;12.292;2023-07-30T03:50:28;17.90;99.90
1800;DHT22;919;48.274;12.292;2023-07-30T03:52:54;17.80;99.90
1800;DHT22;919;48.274;12.292;2023-07-30T03:55:22;17.70;99.90
1800;DHT22;919;48.274;12.292;2023-07-30T03:57:50;17.70;99.90
1800;DHT22;919;48.274;12.292;2023-07-30T04:00:17;17.60;99.90
1800;DHT22;919;48.274;12.292;2023-07-30T04:02:44;17.60;99.90
1800;DHT22;919;48.274;12.292;2023-07-30T04:05:11;17.60;99.90
1800;DHT22;919;48.274;12.292;2023-07-30T04:07:37;17.50;99.90
1800;DHT22;919;48.274;12.292;2023-07-30T04:10:05;17.50;99.90
1800;DHT22;919;48.274;12.292;2023-07-30T04:12:32;17.50;99.90
1800;DHT22;919;48.274;12.292;2023-07-30T04:15:00;17.50;99.90
1800;DHT22;919;48.274;12.292;2023-07-30T04:17:27;17.50;99.90
1800;DHT22;919;48.274;12.292;2023-07-30T04:19:53;17.40;99.90
1800;DHT22;919;48.274;12.292;2023-07-30T04:22:20;17.40;99.90
1800;DHT22;919;48.274;12.292;2023-07-30T04:24:47;17.40;99.90
1800;DHT22;919;48.274;12.292;2023-07-30T04:27:14;17.40;99.90
1800;DHT22;919;48.274;12.292;2023-07-30T04:29:40;17.40;99.90
1800;DHT22;919;48.274;12.292;2023-07-30T04:32:08;17.40;99.90
1800;DHT22;919;48.274;12.292;2023-07-30T04:34:35;17.40;99.90
1800;DHT22;919;48.274;12.292;2023-07-30T04:37:02;17.40;99.90
1800;DHT22;919;48.274;12.292;2023-07-30T04:39:29;17.40;99.90
1800;DHT22;919;48.274;12.292;2023-07-30T04:41:56;17.40;99.90
1800;DHT22;919;48.274;12.292;2023-07-30T04:44:23;17.50;99.90
1800;DHT22;919;48.274;12.292;2023-07-30T04:46:49;17.50;99.90
1800;DHT22;919;48.274;12.292;2023-07-30T04:49:17;17.50;99.90
1800;DHT22;919;48.274;12.292;2023-07-30T04:51:44;17.60;99.90
1800;DHT22;919;48.274;12.292;2023-07-30T04:54:11;17.60;99.90
1800;DHT22;919;48.274;12.292;2023-07-30T04:56:38;17.70;99.90
1800;DHT22;919;48.274;12.292;2023-07-30T04:59:05;17.80;99.90
1800;DHT22;919;48.274;12.292;2023-07-30T05:01:31;18.00;99.90
1800;DHT22;919;48.274;12.292;2023-07-30T05:03:58;18.10;99.90
1800;DHT22;919;48.274;12.292;2023-07-30T05:06:26;18.20;99.90
1800;DHT22;919;48.274;12.292;2023-07-30T05:08:53;18.30;99.90
1800;DHT22;919;48.274;12.292;2023-07-30T05:11:20;18.40;99.90
1800;DHT22;919;48.274;12.292;2023-07-30T05:13:47;18.60;99.90
1800;DHT22;919;48.274;12.292;2023-07-30T05:16:13;18.70;99.90
1800;DHT22;919;48.274;12.292;2023-07-30T05:18:40;18.90;99.90
1800;DHT22;919;48.274;12.292;2023-07-30T05:21:07;19.00;99.90
1800;DHT22;919;48.274;12.292;2023-07-30T05:23:35;19.10;99.90
1800;DHT22;919;48.274;12.292;2023-07-30T05:26:01;19.10;99.90
1800;DHT22;919;48.274;12.292;2023-07-30T05:28:28;19.10;99.90
1800;DHT22;919;48.274;12.292;2023-07-30T05:30:55;19.10;99.90
1800;DHT22;919;48.274;12.292;2023-07-30T05:33:22;19.00;99.90
1800;DHT22;919;48.274;12.292;2023-07-30T05:35:48;19.00;99.90
1800;DHT22;919;48.274;12.292;2023-07-30T05:38:15;19.00;99.90
1800;DHT22;919;48.274;12.292;2023-07-30T05:40:44;19.00;99.90
1800;DHT22;919;48.274;12.292;2023-07-30T05:43:11;18.90;99.90
1800;DHT22;919;48.274;12.292;2023-07-30T05:45:38;19.00;99.90
1800;DHT22;919;48.274;12.292;2023-07-30T05:48:05;19.00;99.90
1800;DHT22;919;48.274;12.292;2023-07-30T05:50:32;19.00;99.90
1800;DHT22;919;48.274;12.292;2023-07-30T05:52:59;19.10;99.90
1800;DHT22;919;48.274;12.292;2023-07-30T05:55:25;19.00;99.90
1800;DHT22;919;48.274;12.292;2023-07-30T05:57:54;19.00;99.90
1800;DHT22;919;48.274;12.292;2023-07-30T06:00:21;18.90;99.90
1800;DHT22;919;48.274;12.292;2023-07-30T06:02:49;19.00;99.90
1800;DHT22;919;48.274;12.292;2023-07-30T06:05:16;19.10;99.90
1800;DHT22;919;48.274;12.292;2023-07-30T06:07:43;19.20;99.90
1800;DHT22;919;48.274;12.292;2023-07-30T06:10:10;19.40;99.90
1800;DHT22;919;48.274;12.292;2023-07-30T06:12:37;19.50;99.90
1800;DHT22;919;48.274;12.292;2023-07-30T06:15:08;19.50;99.90
1800;DHT22;919;48.274;12.292;2023-07-30T06:17:35;19.60;99.90
1800;DHT22;919;48.274;12.292;2023-07-30T06:20:01;19.60;99.90
1800;DHT22;919;48.274;12.292;2023-07-30T06:22:29;19.70;99.90
1800;DHT22;919;48.274;12.292;2023-07-30T06:24:56;19.80;99.90
1800;DHT22;919;48.274;12.292;2023-07-30T06:27:22;19.90;99.90
1800;DHT22;919;48.274;12.292;2023-07-30T06:29:49;20.00;99.90
1800;DHT22;919;48.274;12.292;2023-07-30T06:32:18;20.10;99.90
1800;DHT22;919;48.274;12.292;2023-07-30T06:34:44;20.10;99.90
1800;DHT22;919;48.274;12.292;2023-07-30T06:37:11;20.10;99.90
1800;DHT22;919;48.274;12.292;2023-07-30T06:39:38;20.10;99.90
1800;DHT22;919;48.274;12.292;2023-07-30T06:42:05;20.20;99.90
1800;DHT22;919;48.274;12.292;2023-07-30T06:44:32;20.20;99.90
1800;DHT22;919;48.274;12.292;2023-07-30T06:46:58;20.30;99.90
1800;DHT22;919;48.274;12.292;2023-07-30T06:49:27;20.30;99.90
1800;DHT22;919;48.274;12.292;2023-07-30T06:51:54;20.40;99.90
1800;DHT22;919;48.274;12.292;2023-07-30T06:54:20;20.40;99.90
1800;DHT22;919;48.274;12.292;2023-07-30T06:56:47;20.40;99.90
1800;DHT22;919;48.274;12.292;2023-07-30T06:59:14;20.50;99.90
1800;DHT22;919;48.274;12.292;2023-07-30T07:01:41;20.50;99.90
1800;DHT22;919;48.274;12.292;2023-07-30T07:04:07;20.60;99.90
1800;DHT22;919;48.274;12.292;2023-07-30T07:06:35;20.70;99.90
1800;DHT22;919;48.274;12.292;2023-07-30T07:09:02;20.90;99.90
1800;DHT22;919;48.274;12.292;2023-07-30T07:11:29;20.90;99.90
1800;DHT22;919;48.274;12.292;2023-07-30T07:13:56;20.90;99.90
1800;DHT22;919;48.274;12.292;2023-07-30T07:16:23;20.90;99.90
1800;DHT22;919;48.274;12.292;2023-07-30T07:18:50;21.00;99.90
1800;DHT22;919;48.274;12.292;2023-07-30T07:21:16;21.10;99.90
1800;DHT22;919;48.274;12.292;2023-07-30T07:23:44;21.20;99.90
1800;DHT22;919;48.274;12.292;2023-07-30T07:26:11;21.20;99.90
1800;DHT22;919;48.274;12.292;2023-07-30T07:28:38;21.20;99.90
1800;DHT22;919;48.274;12.292;2023-07-30T07:31:05;21.20;99.90
1800;DHT22;919;48.274;12.292;2023-07-30T07:33:32;21.20;99.90
1800;DHT22;919;48.274;12.292;2023-07-30T07:36:03;21.40;99.90
1800;DHT22;919;48.274;12.292;2023-07-30T07:38:31;21.60;99.90
1800;DHT22;919;48.274;12.292;2023-07-30T07:41:00;21.50;99.90
1800;DHT22;919;48.274;12.292;2023-07-30T07:43:27;21.50;99.90
1800;DHT22;919;48.274;12.292;2023-07-30T07:45:54;21.50;99.90
1800;DHT22;919;48.274;12.292;2023-07-30T07:48:23;21.60;99.90
1800;DHT22;919;48.274;12.292;2023-07-30T07:50:50;21.80;99.90
1800;DHT22;919;48.274;12.292;2023-07-30T07:53:17;22.00;99.90
1800;DHT22;919;48.274;12.292;2023-07-30T07:55:43;22.00;99.90
1800;DHT22;919;48.274;12.292;2023-07-30T07:58:12;22.10;99.90
1800;DHT22;919;48.274;12.292;2023-07-30T08:00:38;22.30;99.90
1800;DHT22;919;48.274;12.292;2023-07-30T08:03:05;22.50;99.90
1800;DHT22;919;48.274;12.292;2023-07-30T08:05:32;22.50;99.90
1800;DHT22;919;48.274;12.292;2023-07-30T08:07:59;22.60;99.90
1800;DHT22;919;48.274;12.292;2023-07-30T08:10:25;22.70;99.90
1800;DHT22;919;48.274;12.292;2023-07-30T08:12:52;22.70;99.90
1800;DHT22;919;48.274;12.292;2023-07-30T08:15:20;22.80;99.90
1800;DHT22;919;48.274;12.292;2023-07-30T08:17:47;22.80;99.90
1800;DHT22;919;48.274;12.292;2023-07-30T08:20:14;22.90;99.90
1800;DHT22;919;48.274;12.292;2023-07-30T08:22:41;23.20;99.90
1800;DHT22;919;48.274;12.292;2023-07-30T08:25:08;23.20;99.90
1800;DHT22;919;48.274;12.292;2023-07-30T08:27:35;23.10;99.90
1800;DHT22;919;48.274;12.292;2023-07-30T08:30:02;23.00;99.90
1800;DHT22;919;48.274;12.292;2023-07-30T08:32:32;23.10;99.90
1800;DHT22;919;48.274;12.292;2023-07-30T08:34:59;23.10;99.90
1800;DHT22;919;48.274;12.292;2023-07-30T08:37:26;23.10;99.90
1800;DHT22;919;48.274;12.292;2023-07-30T08:39:53;22.90;99.90
1800;DHT22;919;48.274;12.292;2023-07-30T08:42:19;22.80;99.90
1800;DHT22;919;48.274;12.292;2023-07-30T08:44:46;22.90;99.90
1800;DHT22;919;48.274;12.292;2023-07-30T08:47:13;23.00;99.90
1800;DHT22;919;48.274;12.292;2023-07-30T08:49:41;23.30;99.90
1800;DHT22;919;48.274;12.292;2023-07-30T08:52:09;23.40;99.90
1800;DHT22;919;48.274;12.292;2023-07-30T08:54:38;23.40;99.90
1800;DHT22;919;48.274;12.292;2023-07-30T08:57:06;23.40;99.90
1800;DHT22;919;48.274;12.292;2023-07-30T08:59:39;23.40;99.90
1800;DHT22;919;48.274;12.292;2023-07-30T09:02:11;23.20;99.90
1800;DHT22;919;48.274;12.292;2023-07-30T09:04:38;23.20;99.90
1800;DHT22;919;48.274;12.292;2023-07-30T09:07:09;22.90;99.90
1800;DHT22;919;48.274;12.292;2023-07-30T09:09:38;23.00;99.90
1800;DHT22;919;48.274;12.292;2023-07-30T09:12:13;22.90;99.90
1800;DHT22;919;48.274;12.292;2023-07-30T09:14:40;22.90;99.90
1800;DHT22;919;48.274;12.292;2023-07-30T09:17:10;23.10;99.90
1800;DHT22;919;48.274;12.292;2023-07-30T09:19:37;23.20;99.90
1800;DHT22;919;48.274;12.292;2023-07-30T09:22:05;23.00;99.90
1800;DHT22;919;48.274;12.292;2023-07-30T09:24:33;23.00;99.90
1800;DHT22;919;48.274;12.292;2023-07-30T09:27:02;22.90;99.90
1800;DHT22;919;48.274;12.292;2023-07-30T09:29:29;23.10;99.90
1800;DHT22;919;48.274;12.292;2023-07-30T09:31:56;23.40;99.90
1800;DHT22;919;48.274;12.292;2023-07-30T09:34:24;23.50;99.90
1800;DHT22;919;48.274;12.292;2023-07-30T09:36:52;23.60;99.90
1800;DHT22;919;48.274;12.292;2023-07-30T09:39:20;23.80;99.90
1800;DHT22;919;48.274;12.292;2023-07-30T09:41:49;23.80;99.90
1800;DHT22;919;48.274;12.292;2023-07-30T09:44:17;23.80;99.90
1800;DHT22;919;48.274;12.292;2023-07-30T09:46:45;24.20;99.90
1800;DHT22;919;48.274;12.292;2023-07-30T09:49:12;24.40;99.90
1800;DHT22;919;48.274;12.292;2023-07-30T09:51:40;24.50;99.90
1800;DHT22;919;48.274;12.292;2023-07-30T09:54:07;24.70;99.90
1800;DHT22;919;48.274;12.292;2023-07-30T09:56:36;24.70;99.90
1800;DHT22;919;48.274;12.292;2023-07-30T09:59:05;24.40;99.90
1800;DHT22;919;48.274;12.292;2023-07-30T10:01:33;24.10;99.90
1800;DHT22;919;48.274;12.292;2023-07-30T10:04:08;23.80;99.90
1800;DHT22;919;48.274;12.292;2023-07-30T10:06:39;23.60;99.90
1800;DHT22;919;48.274;12.292;2023-07-30T10:09:08;23.60;99.90
1800;DHT22;919;48.274;12.292;2023-07-30T10:11:37;23.90;99.90
1800;DHT22;919;48.274;12.292;2023-07-30T10:14:06;24.50;99.90
1800;DHT22;919;48.274;12.292;2023-07-30T10:16:33;24.80;99.90
1800;DHT22;919;48.274;12.292;2023-07-30T10:19:00;25.10;99.90
1800;DHT22;919;48.274;12.292;2023-07-30T10:21:28;25.20;99.90
1800;DHT22;919;48.274;12.292;2023-07-30T10:24:01;25.40;99.90
1800;DHT22;919;48.274;12.292;2023-07-30T10:26:29;25.70;99.90
1800;DHT22;919;48.274;12.292;2023-07-30T10:29:17;25.50;99.90
1800;DHT22;919;48.274;12.292;2023-07-30T10:31:53;25.30;99.90
1800;DHT22;919;48.274;12.292;2023-07-30T10:34:21;25.30;99.90
1800;DHT22;919;48.274;12.292;2023-07-30T10:36:49;25.40;99.90
1800;DHT22;919;48.274;12.292;2023-07-30T10:39:18;25.60;99.90
1800;DHT22;919;48.274;12.292;2023-07-30T10:41:45;25.60;99.90
1800;DHT22;919;48.274;12.292;2023-07-30T10:44:22;25.90;99.90
1800;DHT22;919;48.274;12.292;2023-07-30T10:46:49;26.30;99.90
1800;DHT22;919;48.274;12.292;2023-07-30T10:49:16;26.40;99.90
1800;DHT22;919;48.274;12.292;2023-07-30T10:51:42;26.60;99.90
1800;DHT22;919;48.274;12.292;2023-07-30T10:54:09;26.50;99.90
1800;DHT22;919;48.274;12.292;2023-07-30T10:56:36;26.50;99.90
1800;DHT22;919;48.274;12.292;2023-07-30T10:59:04;26.10;99.90
1800;DHT22;919;48.274;12.292;2023-07-30T11:01:36;25.50;99.90
1800;DHT22;919;48.274;12.292;2023-07-30T11:04:06;25.30;99.90
1800;DHT22;919;48.274;12.292;2023-07-30T11:06:33;25.00;99.90
1800;DHT22;919;48.274;12.292;2023-07-30T11:09:00;25.00;99.90
1800;DHT22;919;48.274;12.292;2023-07-30T11:11:27;25.50;99.90
1800;DHT22;919;48.274;12.292;2023-07-30T11:13:54;26.10;99.90
1800;DHT22;919;48.274;12.292;2023-07-30T11:16:21;26.40;99.90
1800;DHT22;919;48.274;12.292;2023-07-30T11:18:49;26.40;99.90
1800;DHT22;919;48.274;12.292;2023-07-30T11:21:17;26.40;99.90
1800;DHT22;919;48.274;12.292;2023-07-30T11:23:45;26.30;99.90
1800;DHT22;919;48.274;12.292;2023-07-30T11:26:15;25.70;99.90
1800;DHT22;919;48.274;12.292;2023-07-30T11:28:42;25.50;99.90
1800;DHT22;919;48.274;12.292;2023-07-30T11:31:12;25.30;99.90
1800;DHT22;919;48.274;12.292;2023-07-30T11:33:41;25.10;99.90
1800;DHT22;919;48.274;12.292;2023-07-30T11:36:12;24.90;99.90
1800;DHT22;919;48.274;12.292;2023-07-30T11:38:39;25.20;99.90
1800;DHT22;919;48.274;12.292;2023-07-30T11:41:07;25.80;99.90
1800;DHT22;919;48.274;12.292;2023-07-30T11:43:37;26.20;99.90
1800;DHT22;919;48.274;12.292;2023-07-30T11:46:09;26.50;99.90
1800;DHT22;919;48.274;12.292;2023-07-30T11:48:37;26.60;99.90
1800;DHT22;919;48.274;12.292;2023-07-30T11:51:04;26.50;99.90
1800;DHT22;919;48.274;12.292;2023-07-30T11:53:45;26.10;99.90
1800;DHT22;919;48.274;12.292;2023-07-30T11:56:20;25.90;99.90
1800;DHT22;919;48.274;12.292;2023-07-30T11:58:49;25.60;99.90
1800;DHT22;919;48.274;12.292;2023-07-30T12:01:17;25.60;99.90
1800;DHT22;919;48.274;12.292;2023-07-30T12:03:44;25.60;99.90
1800;DHT22;919;48.274;12.292;2023-07-30T12:06:11;25.90;99.90
1800;DHT22;919;48.274;12.292;2023-07-30T12:08:38;26.00;99.90
1800;DHT22;919;48.274;12.292;2023-07-30T12:11:08;26.50;99.90
1800;DHT22;919;48.274;12.292;2023-07-30T12:13:42;26.60;99.90
1800;DHT22;919;48.274;12.292;2023-07-30T12:16:11;26.40;99.90
1800;DHT22;919;48.274;12.292;2023-07-30T12:18:38;25.80;99.90
1800;DHT22;919;48.274;12.292;2023-07-30T12:21:06;25.50;99.90
1800;DHT22;919;48.274;12.292;2023-07-30T12:23:33;25.10;99.90
1800;DHT22;919;48.274;12.292;2023-07-30T12:26:00;25.10;99.90
1800;DHT22;919;48.274;12.292;2023-07-30T12:28:31;25.10;99.90
1800;DHT22;919;48.274;12.292;2023-07-30T12:30:58;25.20;99.90
1800;DHT22;919;48.274;12.292;2023-07-30T12:33:24;25.40;99.90
1800;DHT22;919;48.274;12.292;2023-07-30T12:35:51;25.70;99.90
1800;DHT22;919;48.274;12.292;2023-07-30T12:38:18;26.10;99.90
1800;DHT22;919;48.274;12.292;2023-07-30T12:40:45;26.50;99.90
1800;DHT22;919;48.274;12.292;2023-07-30T12:43:12;26.60;99.90
1800;DHT22;919;48.274;12.292;2023-07-30T12:45:41;26.60;99.90
1800;DHT22;919;48.274;12.292;2023-07-30T12:48:07;26.30;99.90
1800;DHT22;919;48.274;12.292;2023-07-30T12:50:34;26.10;99.90
1800;DHT22;919;48.274;12.292;2023-07-30T12:53:01;25.60;99.90
1800;DHT22;919;48.274;12.292;2023-07-30T12:55:28;25.40;99.90
1800;DHT22;919;48.274;12.292;2023-07-30T12:57:54;25.10;99.90
1800;DHT22;919;48.274;12.292;2023-07-30T13:00:21;25.40;99.90
1800;DHT22;919;48.274;12.292;2023-07-30T13:02:50;25.60;99.90
1800;DHT22;919;48.274;12.292;2023-07-30T13:05:18;25.80;99.90
1800;DHT22;919;48.274;12.292;2023-07-30T13:07:44;26.20;99.90
1800;DHT22;919;48.274;12.292;2023-07-30T13:10:11;26.30;99.90
1800;DHT22;919;48.274;12.292;2023-07-30T13:12:38;26.50;99.90
1800;DHT22;919;48.274;12.292;2023-07-30T13:15:05;26.40;99.90
1800;DHT22;919;48.274;12.292;2023-07-30T13:17:32;26.40;99.90
1800;DHT22;919;48.274;12.292;2023-07-30T13:20:01;26.40;99.90
1800;DHT22;919;48.274;12.292;2023-07-30T13:22:27;26.40;99.90
1800;DHT22;919;48.274;12.292;2023-07-30T13:24:54;26.40;99.90
1800;DHT22;919;48.274;12.292;2023-07-30T13:27:21;26.30;99.90
1800;DHT22;919;48.274;12.292;2023-07-30T13:29:48;26.10;99.90
1800;DHT22;919;48.274;12.292;2023-07-30T13:32:14;26.00;99.90
1800;DHT22;919;48.274;12.292;2023-07-30T13:34:41;26.10;99.90
1800;DHT22;919;48.274;12.292;2023-07-30T13:37:09;26.30;99.90
1800;DHT22;919;48.274;12.292;2023-07-30T13:39:36;26.40;99.90
1800;DHT22;919;48.274;12.292;2023-07-30T13:42:04;26.40;99.90
1800;DHT22;919;48.274;12.292;2023-07-30T13:44:30;26.30;99.90
1800;DHT22;919;48.274;12.292;2023-07-30T13:46:57;26.30;99.90
1800;DHT22;919;48.274;12.292;2023-07-30T13:49:24;26.30;99.90
1800;DHT22;919;48.274;12.292;2023-07-30T13:51:51;26.30;99.90
1800;DHT22;919;48.274;12.292;2023-07-30T13:54:19;25.80;99.90
1800;DHT22;919;48.274;12.292;2023-07-30T13:56:46;25.80;99.90
1800;DHT22;919;48.274;12.292;2023-07-30T13:59:12;26.00;99.90
1800;DHT22;919;48.274;12.292;2023-07-30T14:01:39;26.10;99.90
1800;DHT22;919;48.274;12.292;2023-07-30T14:04:06;26.10;99.90
1800;DHT22;919;48.274;12.292;2023-07-30T14:06:33;25.90;99.90
1800;DHT22;919;48.274;12.292;2023-07-30T14:08:59;25.50;99.90
1800;DHT22;919;48.274;12.292;2023-07-30T14:11:28;25.10;99.90
1800;DHT22;919;48.274;12.292;2023-07-30T14:13:55;25.00;99.90
1800;DHT22;919;48.274;12.292;2023-07-30T14:16:23;24.90;99.90
1800;DHT22;919;48.274;12.292;2023-07-30T14:18:50;24.70;99.90
1800;DHT22;919;48.274;12.292;2023-07-30T14:21:17;24.60;99.90
1800;DHT22;919;48.274;12.292;2023-07-30T14:23:43;24.50;99.90
1800;DHT22;919;48.274;12.292;2023-07-30T14:26:10;24.00;99.90
1800;DHT22;919;48.274;12.292;2023-07-30T14:28:38;23.70;99.90
1800;DHT22;919;48.274;12.292;2023-07-30T14:31:05;23.60;99.90
1800;DHT22;919;48.274;12.292;2023-07-30T14:33:32;23.40;99.90
1800;DHT22;919;48.274;12.292;2023-07-30T14:35:59;23.30;99.90
1800;DHT22;919;48.274;12.292;2023-07-30T14:38:25;23.10;99.90
1800;DHT22;919;48.274;12.292;2023-07-30T14:40:52;23.10;99.90
1800;DHT22;919;48.274;12.292;2023-07-30T14:43:19;23.10;99.90
1800;DHT22;919;48.274;12.292;2023-07-30T14:45:48;23.30;99.90
1800;DHT22;919;48.274;12.292;2023-07-30T14:48:16;23.60;99.90
1800;DHT22;919;48.274;12.292;2023-07-30T14:50:45;24.00;99.90
1800;DHT22;919;48.274;12.292;2023-07-30T14:53:12;24.40;99.90
1800;DHT22;919;48.274;12.292;2023-07-30T14:55:39;24.90;99.90
1800;DHT22;919;48.274;12.292;2023-07-30T14:58:05;25.40;99.90
1800;DHT22;919;48.274;12.292;2023-07-30T15:00:34;25.60;99.90
1800;DHT22;919;48.274;12.292;2023-07-30T15:03:02;25.40;99.90
1800;DHT22;919;48.274;12.292;2023-07-30T15:05:30;25.40;99.90
1800;DHT22;919;48.274;12.292;2023-07-30T15:07:58;25.40;99.90
1800;DHT22;919;48.274;12.292;2023-07-30T15:10:24;25.50;99.90
1800;DHT22;919;48.274;12.292;2023-07-30T15:12:51;25.60;99.90
1800;DHT22;919;48.274;12.292;2023-07-30T15:15:18;25.50;99.90
1800;DHT22;919;48.274;12.292;2023-07-30T15:17:45;25.60;99.90
1800;DHT22;919;48.274;12.292;2023-07-30T15:20:13;25.60;99.90
1800;DHT22;919;48.274;12.292;2023-07-30T15:22:40;25.60;99.90
1800;DHT22;919;48.274;12.292;2023-07-30T15:25:07;25.70;99.90
1800;DHT22;919;48.274;12.292;2023-07-30T15:27:34;25.60;99.90
1800;DHT22;919;48.274;12.292;2023-07-30T15:30:00;25.60;99.90
1800;DHT22;919;48.274;12.292;2023-07-30T15:32:28;25.70;99.90
1800;DHT22;919;48.274;12.292;2023-07-30T15:34:55;25.70;99.90
1800;DHT22;919;48.274;12.292;2023-07-30T15:37:23;25.80;99.90
1800;DHT22;919;48.274;12.292;2023-07-30T15:39:50;25.80;99.90
1800;DHT22;919;48.274;12.292;2023-07-30T15:42:17;25.80;99.90
1800;DHT22;919;48.274;12.292;2023-07-30T15:44:44;25.80;99.90
1800;DHT22;919;48.274;12.292;2023-07-30T15:47:11;25.80;99.90
1800;DHT22;919;48.274;12.292;2023-07-30T15:49:38;25.70;99.90
1800;DHT22;919;48.274;12.292;2023-07-30T15:52:06;25.60;99.90
1800;DHT22;919;48.274;12.292;2023-07-30T15:54:35;25.40;99.90
1800;DHT22;919;48.274;12.292;2023-07-30T15:57:03;25.10;99.90
1800;DHT22;919;48.274;12.292;2023-07-30T15:59:33;25.00;99.90
1800;DHT22;919;48.274;12.292;2023-07-30T16:02:00;24.80;99.90
1800;DHT22;919;48.274;12.292;2023-07-30T16:04:27;24.90;99.90